Big Bear Station Historical Data
Daily Summary for March 8, 2019 Units:  Both    English   Metric
Next Day »
Daily Weekly Monthly Yearly Custom
  High: Low: Average:
Temperature: 35.2 °F /  1.8 °C 20.7 °F /  -6.3 °C 26.9 °F /  -2.8 °C
Dew Point: 28.1 °F /  -2.2 °C 19.2 °F /  -7.1 °C 24.3 °F /  -4.3 °C
Humidity: 95% 75% 90%
Wind Speed: 7.8mph /  12.6km/h - 1.6mph /  2.6km/h
Wind Gust: -999.0mph /  -1607.7km/h - -
Wind- - SW
Pressure: 23.34 in /  790.3 hPa 23.26 in /  787.6 hPa -
Precipitation: 0.00 in /  0 mm    
Historical Graphs
 
 
Tabular Data for March 8, 2019
Time Temperature Dew Point Pressure Wind Wind Speed Wind Gust Humidity Rainfall Rate (Hourly)
00:14 26.6 °F /  -3 °C 25.1 °F /  -3.8 °C 23.28in /  788.3hPa WSW 2.7mph /  4.3km/h -999.0mph /  -1607.7km/h 94% 0.00in /  0mm
00:29 26.4 °F /  -3.1 °C 24.9 °F /  -3.9 °C 23.29in /  788.6hPa SW 2.2mph /  3.5km/h -999.0mph /  -1607.7km/h 94% 0.00in /  0mm
00:45 26.1 °F /  -3.3 °C 24.9 °F /  -3.9 °C 23.29in /  788.6hPa SSW 3.7mph /  6km/h -999.0mph /  -1607.7km/h 95% 0.00in /  0mm
01:00 25.7 °F /  -3.5 °C 24.2 °F /  -4.3 °C 23.28in /  788.3hPa Calm   -999.0mph /  -1607.7km/h 94% 0.00in /  0mm
01:15 25.7 °F /  -3.5 °C 24.2 °F /  -4.3 °C 23.28in /  788.3hPa Calm   -999.0mph /  -1607.7km/h 94% 0.00in /  0mm
01:30 25.7 °F /  -3.5 °C 24.2 °F /  -4.3 °C 23.28in /  788.3hPa Calm   -999.0mph /  -1607.7km/h 94% 0.00in /  0mm
01:45 25.7 °F /  -3.5 °C 24.2 °F /  -4.3 °C 23.28in /  788.3hPa Calm   -999.0mph /  -1607.7km/h 94% 0.00in /  0mm
02:01 25.5 °F /  -3.6 °C 24.0 °F /  -4.4 °C 23.28in /  788.3hPa Calm   -999.0mph /  -1607.7km/h 94% 0.00in /  0mm
02:16 25.5 °F /  -3.6 °C 24.0 °F /  -4.4 °C 23.27in /  787.9hPa Calm   -999.0mph /  -1607.7km/h 94% 0.00in /  0mm
02:31 25.7 °F /  -3.5 °C 24.5 °F /  -4.2 °C 23.27in /  787.9hPa Calm   -999.0mph /  -1607.7km/h 95% 0.00in /  0mm
02:46 25.7 °F /  -3.5 °C 24.5 °F /  -4.2 °C 23.27in /  787.9hPa Calm   -999.0mph /  -1607.7km/h 95% 0.00in /  0mm
03:01 25.5 °F /  -3.6 °C 24.3 °F /  -4.3 °C 23.27in /  787.9hPa Calm   -999.0mph /  -1607.7km/h 95% 0.00in /  0mm
03:17 25.5 °F /  -3.6 °C 24.0 °F /  -4.4 °C 23.26in /  787.6hPa Calm   -999.0mph /  -1607.7km/h 94% 0.00in /  0mm
03:32 25.7 °F /  -3.5 °C 24.2 °F /  -4.3 °C 23.27in /  787.9hPa SSE 1.1mph /  1.8km/h -999.0mph /  -1607.7km/h 94% 0.00in /  0mm
03:47 25.5 °F /  -3.6 °C 24.0 °F /  -4.4 °C 23.26in /  787.6hPa Calm   -999.0mph /  -1607.7km/h 94% 0.00in /  0mm
04:02 25.3 °F /  -3.7 °C 23.8 °F /  -4.6 °C 23.26in /  787.6hPa South 3.2mph /  5.1km/h -999.0mph /  -1607.7km/h 94% 0.00in /  0mm
04:18 25.2 °F /  -3.8 °C 23.7 °F /  -4.6 °C 23.26in /  787.6hPa WSW 1.1mph /  1.8km/h -999.0mph /  -1607.7km/h 94% 0.00in /  0mm
04:33 24.6 °F /  -4.1 °C 22.9 °F /  -5.1 °C 23.26in /  787.6hPa Calm   -999.0mph /  -1607.7km/h 93% 0.00in /  0mm
04:48 24.3 °F /  -4.3 °C 22.3 °F /  -5.4 °C 23.27in /  787.9hPa NNW 2.7mph /  4.3km/h -999.0mph /  -1607.7km/h 92% 0.00in /  0mm
05:03 24.1 °F /  -4.4 °C 21.9 °F /  -5.6 °C 23.28in /  788.3hPa ESE 1.7mph /  2.7km/h -999.0mph /  -1607.7km/h 91% 0.00in /  0mm
05:19 23.9 °F /  -4.5 °C 21.9 °F /  -5.6 °C 23.28in /  788.3hPa Calm   -999.0mph /  -1607.7km/h 92% 0.00in /  0mm
05:34 23.9 °F /  -4.5 °C 22.2 °F /  -5.4 °C 23.28in /  788.3hPa NW 2.2mph /  3.5km/h -999.0mph /  -1607.7km/h 93% 0.00in /  0mm
05:49 23.9 °F /  -4.5 °C 22.4 °F /  -5.3 °C 23.28in /  788.3hPa WNW 4.2mph /  6.8km/h -999.0mph /  -1607.7km/h 94% 0.00in /  0mm
06:04 23.9 °F /  -4.5 °C 22.4 °F /  -5.3 °C 23.28in /  788.3hPa Calm   -999.0mph /  -1607.7km/h 94% 0.00in /  0mm
06:19 23.9 °F /  -4.5 °C 22.7 °F /  -5.2 °C 23.28in /  788.3hPa WSW 1.7mph /  2.7km/h -999.0mph /  -1607.7km/h 95% 0.00in /  0mm
06:35 24.1 °F /  -4.4 °C 22.6 °F /  -5.2 °C 23.28in /  788.3hPa SE 1.7mph /  2.7km/h -999.0mph /  -1607.7km/h 94% 0.00in /  0mm
06:50 24.6 °F /  -4.1 °C 23.1 °F /  -4.9 °C 23.28in /  788.3hPa Calm   -999.0mph /  -1607.7km/h 94% 0.00in /  0mm
07:05 25.0 °F /  -3.9 °C 22.5 °F /  -5.3 °C 23.28in /  788.3hPa WNW 3.2mph /  5.1km/h -999.0mph /  -1607.7km/h 90% 0.00in /  0mm
07:20 25.7 °F /  -3.5 °C 23.2 °F /  -4.9 °C 23.28in /  788.3hPa Calm   -999.0mph /  -1607.7km/h 90% 0.00in /  0mm
07:36 25.9 °F /  -3.4 °C 23.4 °F /  -4.8 °C 23.28in /  788.3hPa West 2.2mph /  3.5km/h -999.0mph /  -1607.7km/h 90% 0.00in /  0mm
07:51 25.7 °F /  -3.5 °C 22.9 °F /  -5.1 °C 23.28in /  788.3hPa West 1.1mph /  1.8km/h -999.0mph /  -1607.7km/h 89% 0.00in /  0mm
08:07 26.6 °F /  -3 °C 23.3 °F /  -4.8 °C 23.29in /  788.6hPa WNW 2.2mph /  3.5km/h -999.0mph /  -1607.7km/h 87% 0.00in /  0mm
08:22 27.1 °F /  -2.7 °C 24.0 °F /  -4.4 °C 23.30in /  788.9hPa ESE 1.7mph /  2.7km/h -999.0mph /  -1607.7km/h 88% 0.00in /  0mm
08:37 28.0 °F /  -2.2 °C 24.4 °F /  -4.2 °C 23.30in /  788.9hPa SSW 2.2mph /  3.5km/h -999.0mph /  -1607.7km/h 86% 0.00in /  0mm
08:53 29.3 °F /  -1.5 °C 25.4 °F /  -3.7 °C 23.30in /  788.9hPa NW 1.7mph /  2.7km/h -999.0mph /  -1607.7km/h 85% 0.00in /  0mm
09:08 29.1 °F /  -1.6 °C 25.4 °F /  -3.7 °C 23.30in /  788.9hPa WSW 6.3mph /  10.1km/h -999.0mph /  -1607.7km/h 86% 0.00in /  0mm
09:24 29.7 °F /  -1.3 °C 25.5 °F /  -3.6 °C 23.30in /  788.9hPa South 3.2mph /  5.1km/h -999.0mph /  -1607.7km/h 84% 0.00in /  0mm
09:39 30.6 °F /  -0.8 °C 26.6 °F /  -3 °C 23.29in /  788.6hPa Calm   -999.0mph /  -1607.7km/h 85% 0.00in /  0mm
09:54 31.1 °F /  -0.5 °C 26.5 °F /  -3.1 °C 23.30in /  788.9hPa NW 5.8mph /  9.3km/h -999.0mph /  -1607.7km/h 83% 0.00in /  0mm
10:09 29.5 °F /  -1.4 °C 25.5 °F /  -3.6 °C 23.30in /  788.9hPa East 5.8mph /  9.3km/h -999.0mph /  -1607.7km/h 85% 0.00in /  0mm
10:25 29.8 °F /  -1.2 °C 25.6 °F /  -3.6 °C 23.30in /  788.9hPa NNW 7.8mph /  12.6km/h -999.0mph /  -1607.7km/h 84% 0.00in /  0mm
10:40 30.2 °F /  -1 °C 26.5 °F /  -3.1 °C 23.30in /  788.9hPa West 3.7mph /  6km/h -999.0mph /  -1607.7km/h 86% 0.00in /  0mm
10:55 29.3 °F /  -1.5 °C 26.2 °F /  -3.2 °C 23.30in /  788.9hPa Calm   -999.0mph /  -1607.7km/h 88% 0.00in /  0mm
11:11 29.8 °F /  -1.2 °C 25.6 °F /  -3.6 °C 23.31in /  789.3hPa NE 2.2mph /  3.5km/h -999.0mph /  -1607.7km/h 84% 0.00in /  0mm
11:26 32.4 °F /  0.2 °C 27.8 °F /  -2.3 °C 23.31in /  789.3hPa NNE 2.2mph /  3.5km/h -999.0mph /  -1607.7km/h 83% 0.00in /  0mm
11:42 32.9 °F /  0.5 °C 27.1 °F /  -2.7 °C 23.31in /  789.3hPa NW 2.2mph /  3.5km/h -999.0mph /  -1607.7km/h 79% 0.00in /  0mm
11:57 35.2 °F /  1.8 °C 28.1 °F /  -2.2 °C 23.31in /  789.3hPa NW 2.7mph /  4.3km/h -999.0mph /  -1607.7km/h 75% 0.00in /  0mm
12:13 32.4 °F /  0.2 °C 27.2 °F /  -2.7 °C 23.31in /  789.3hPa South 4.2mph /  6.8km/h -999.0mph /  -1607.7km/h 81% 0.00in /  0mm
12:28 30.9 °F /  -0.6 °C 25.2 °F /  -3.8 °C 23.30in /  788.9hPa East 2.7mph /  4.3km/h -999.0mph /  -1607.7km/h 79% 0.00in /  0mm
12:44 33.6 °F /  0.9 °C 27.2 °F /  -2.7 °C 23.30in /  788.9hPa NNE 4.7mph /  7.6km/h -999.0mph /  -1607.7km/h 77% 0.00in /  0mm
13:00 33.8 °F /  1 °C 27.0 °F /  -2.8 °C 23.30in /  788.9hPa West 3.7mph /  6km/h -999.0mph /  -1607.7km/h 76% 0.00in /  0mm
13:15 33.6 °F /  0.9 °C 27.5 °F /  -2.5 °C 23.30in /  788.9hPa NW 1.1mph /  1.8km/h -999.0mph /  -1607.7km/h 78% 0.00in /  0mm
13:31 32.7 °F /  0.4 °C 27.5 °F /  -2.5 °C 23.30in /  788.9hPa Calm   -999.0mph /  -1607.7km/h 81% 0.00in /  0mm
13:46 31.1 °F /  -0.5 °C 26.8 °F /  -2.9 °C 23.30in /  788.9hPa NNW 2.7mph /  4.3km/h -999.0mph /  -1607.7km/h 84% 0.00in /  0mm
14:01 32.4 °F /  0.2 °C 26.9 °F /  -2.8 °C 23.30in /  788.9hPa South 4.2mph /  6.8km/h -999.0mph /  -1607.7km/h 80% 0.00in /  0mm
14:16 32.2 °F /  0.1 °C 27.6 °F /  -2.4 °C 23.30in /  788.9hPa WNW 2.2mph /  3.5km/h -999.0mph /  -1607.7km/h 83% 0.00in /  0mm
14:31 31.3 °F /  -0.4 °C 27.3 °F /  -2.6 °C 23.30in /  788.9hPa West 2.2mph /  3.5km/h -999.0mph /  -1607.7km/h 85% 0.00in /  0mm
14:47 31.8 °F /  -0.1 °C 27.2 °F /  -2.7 °C 23.30in /  788.9hPa SSE 2.7mph /  4.3km/h -999.0mph /  -1607.7km/h 83% 0.00in /  0mm
15:02 31.8 °F /  -0.1 °C 27.5 °F /  -2.5 °C 23.30in /  788.9hPa WNW 3.2mph /  5.1km/h -999.0mph /  -1607.7km/h 84% 0.00in /  0mm
15:17 30.7 °F /  -0.7 °C 26.4 °F /  -3.1 °C 23.30in /  788.9hPa South 4.2mph /  6.8km/h -999.0mph /  -1607.7km/h 84% 0.00in /  0mm
15:32 30.0 °F /  -1.1 °C 26.6 °F /  -3 °C 23.31in /  789.3hPa SSE 3.2mph /  5.1km/h -999.0mph /  -1607.7km/h 87% 0.00in /  0mm
15:47 29.7 °F /  -1.3 °C 26.6 °F /  -3 °C 23.30in /  788.9hPa SW 2.2mph /  3.5km/h -999.0mph /  -1607.7km/h 88% 0.00in /  0mm
16:03 28.0 °F /  -2.2 °C 25.4 °F /  -3.7 °C 23.30in /  788.9hPa WNW 4.2mph /  6.8km/h -999.0mph /  -1607.7km/h 90% 0.00in /  0mm
16:18 28.2 °F /  -2.1 °C 25.4 °F /  -3.7 °C 23.31in /  789.3hPa Calm   -999.0mph /  -1607.7km/h 89% 0.00in /  0mm
16:33 27.5 °F /  -2.5 °C 25.0 °F /  -3.9 °C 23.31in /  789.3hPa West 2.7mph /  4.3km/h -999.0mph /  -1607.7km/h 90% 0.00in /  0mm
16:48 27.1 °F /  -2.7 °C 25.3 °F /  -3.7 °C 23.30in /  788.9hPa WSW 4.2mph /  6.8km/h -999.0mph /  -1607.7km/h 93% 0.00in /  0mm
17:03 26.8 °F /  -2.9 °C 25.3 °F /  -3.7 °C 23.30in /  788.9hPa SSW 3.7mph /  6km/h -999.0mph /  -1607.7km/h 94% 0.00in /  0mm
17:19 26.6 °F /  -3 °C 24.9 °F /  -3.9 °C 23.30in /  788.9hPa Calm   -999.0mph /  -1607.7km/h 93% 0.00in /  0mm
17:34 26.4 °F /  -3.1 °C 24.9 °F /  -3.9 °C 23.30in /  788.9hPa Calm   -999.0mph /  -1607.7km/h 94% 0.00in /  0mm
17:49 26.1 °F /  -3.3 °C 24.4 °F /  -4.2 °C 23.30in /  788.9hPa SSW 1.7mph /  2.7km/h -999.0mph /  -1607.7km/h 93% 0.00in /  0mm
18:05 25.9 °F /  -3.4 °C 24.4 °F /  -4.2 °C 23.30in /  788.9hPa NW 1.7mph /  2.7km/h -999.0mph /  -1607.7km/h 94% 0.00in /  0mm
18:20 25.9 °F /  -3.4 °C 24.4 °F /  -4.2 °C 23.31in /  789.3hPa SSE 1.7mph /  2.7km/h -999.0mph /  -1607.7km/h 94% 0.00in /  0mm
18:35 25.9 °F /  -3.4 °C 24.2 °F /  -4.3 °C 23.30in /  788.9hPa Calm   -999.0mph /  -1607.7km/h 93% 0.00in /  0mm
18:50 25.7 °F /  -3.5 °C 24.2 °F /  -4.3 °C 23.30in /  788.9hPa Calm   -999.0mph /  -1607.7km/h 94% 0.00in /  0mm
19:06 25.7 °F /  -3.5 °C 24.2 °F /  -4.3 °C 23.32in /  789.6hPa Calm   -999.0mph /  -1607.7km/h 94% 0.00in /  0mm
19:21 25.5 °F /  -3.6 °C 24.0 °F /  -4.4 °C 23.32in /  789.6hPa WNW 2.2mph /  3.5km/h -999.0mph /  -1607.7km/h 94% 0.00in /  0mm
19:36 25.7 °F /  -3.5 °C 24.2 °F /  -4.3 °C 23.32in /  789.6hPa North 2.7mph /  4.3km/h -999.0mph /  -1607.7km/h 94% 0.00in /  0mm
19:52 25.7 °F /  -3.5 °C 24.2 °F /  -4.3 °C 23.32in /  789.6hPa Calm   -999.0mph /  -1607.7km/h 94% 0.00in /  0mm
20:07 25.7 °F /  -3.5 °C 24.2 °F /  -4.3 °C 23.33in /  790hPa Calm   -999.0mph /  -1607.7km/h 94% 0.00in /  0mm
20:22 25.7 °F /  -3.5 °C 24.2 °F /  -4.3 °C 23.32in /  789.6hPa Calm   -999.0mph /  -1607.7km/h 94% 0.00in /  0mm
20:37 25.5 °F /  -3.6 °C 23.8 °F /  -4.6 °C 23.32in /  789.6hPa Calm   -999.0mph /  -1607.7km/h 93% 0.00in /  0mm
20:53 25.2 °F /  -3.8 °C 23.2 °F /  -4.9 °C 23.32in /  789.6hPa Calm   -999.0mph /  -1607.7km/h 92% 0.00in /  0mm
21:08 24.8 °F /  -4 °C 22.5 °F /  -5.3 °C 23.32in /  789.6hPa Calm   -999.0mph /  -1607.7km/h 91% 0.00in /  0mm
21:23 24.3 °F /  -4.3 °C 22.3 °F /  -5.4 °C 23.32in /  789.6hPa Calm   -999.0mph /  -1607.7km/h 92% 0.00in /  0mm
21:38 23.9 °F /  -4.5 °C 22.2 °F /  -5.4 °C 23.32in /  789.6hPa Calm   -999.0mph /  -1607.7km/h 93% 0.00in /  0mm
21:53 23.4 °F /  -4.8 °C 21.7 °F /  -5.7 °C 23.34in /  790.3hPa Calm   -999.0mph /  -1607.7km/h 93% 0.00in /  0mm
22:09 22.8 °F /  -5.1 °C 20.8 °F /  -6.2 °C 23.33in /  790hPa Calm   -999.0mph /  -1607.7km/h 92% 0.00in /  0mm
22:24 22.1 °F /  -5.5 °C 20.1 °F /  -6.6 °C 23.32in /  789.6hPa Calm   -999.0mph /  -1607.7km/h 92% 0.00in /  0mm
22:39 21.7 °F /  -5.7 °C 20.0 °F /  -6.7 °C 23.32in /  789.6hPa Calm   -999.0mph /  -1607.7km/h 93% 0.00in /  0mm
22:55 21.4 °F /  -5.9 °C 19.9 °F /  -6.7 °C 23.32in /  789.6hPa Calm   -999.0mph /  -1607.7km/h 94% 0.00in /  0mm
23:10 20.8 °F /  -6.2 °C 19.3 °F /  -7.1 °C 23.32in /  789.6hPa Calm   -999.0mph /  -1607.7km/h 94% 0.00in /  0mm
23:26 20.7 °F /  -6.3 °C 19.2 °F /  -7.1 °C 23.33in /  790hPa South 2.2mph /  3.5km/h -999.0mph /  -1607.7km/h 94% 0.00in /  0mm
23:41 21.6 °F /  -5.8 °C 20.1 °F /  -6.6 °C 23.33in /  790hPa Calm   -999.0mph /  -1607.7km/h 94% 0.00in /  0mm
23:56 21.7 °F /  -5.7 °C 20.0 °F /  -6.7 °C 23.33in /  790hPa Calm   -999.0mph /  -1607.7km/h 93% 0.00in /  0mm
Big Bear CA Weather